createdAt,value
2018-05-07T00:02:08.311Z,77.60
2018-05-07T00:04:37.204Z,77.30
2018-05-07T00:07:03.338Z,77.30
2018-05-07T00:09:32.552Z,79.10
2018-05-07T00:11:59.696Z,76.30
2018-05-07T00:14:25.787Z,77.70
2018-05-07T00:16:51.829Z,83.00
2018-05-07T00:19:24.395Z,81.40
2018-05-07T00:21:51.288Z,81.80
2018-05-07T00:24:18.459Z,81.90
2018-05-07T00:26:46.578Z,82.40
2018-05-07T00:29:13.441Z,83.90
2018-05-07T00:31:41.655Z,84.00
2018-05-07T00:34:08.762Z,78.80
2018-05-07T00:36:35.939Z,82.20
2018-05-07T00:39:02.873Z,85.30
2018-05-07T00:41:31.015Z,85.20
2018-05-07T00:43:58.119Z,86.30
2018-05-07T00:46:24.277Z,86.10
2018-05-07T00:48:51.494Z,84.80
2018-05-07T00:51:17.714Z,83.90
2018-05-07T00:53:43.780Z,79.40
2018-05-07T00:56:10.859Z,77.50
2018-05-07T00:58:37.979Z,77.40
2018-05-07T01:01:06.935Z,81.50
2018-05-07T01:03:39.314Z,81.40
2018-05-07T01:06:05.420Z,82.10
2018-05-07T01:08:31.526Z,83.70
2018-05-07T01:10:58.667Z,86.70
2018-05-07T01:13:27.552Z,89.00
2018-05-07T01:15:54.671Z,88.90
2018-05-07T01:18:20.852Z,85.70
2018-05-07T01:20:48.101Z,88.10
2018-05-07T01:23:14.306Z,90.20
2018-05-07T01:25:45.917Z,89.10
2018-05-07T01:28:11.983Z,89.00
2018-05-07T01:30:38.874Z,88.10
2018-05-07T01:33:05.969Z,88.00
2018-05-07T01:35:31.998Z,89.10
2018-05-07T01:37:58.972Z,91.40
2018-05-07T01:40:28.430Z,91.30
2018-05-07T01:42:54.566Z,90.20
2018-05-07T01:45:21.509Z,91.10
2018-05-07T01:47:47.642Z,91.00
2018-05-07T01:50:19.106Z,91.00
2018-05-07T01:52:45.942Z,87.60
2018-05-07T01:55:12.911Z,87.80
2018-05-07T01:57:39.010Z,87.70
2018-05-07T02:00:08.755Z,88.80
2018-05-07T02:02:34.852Z,91.60
2018-05-07T02:05:01.676Z,93.10
2018-05-07T02:07:27.851Z,93.00
2018-05-07T02:09:53.971Z,89.30
2018-05-07T02:12:20.150Z,89.30
2018-05-07T02:14:46.177Z,84.90
2018-05-07T02:17:12.252Z,84.40
2018-05-07T02:19:39.367Z,87.50
2018-05-07T02:22:06.430Z,85.90
2018-05-07T02:24:33.257Z,91.90
2018-05-07T02:26:59.485Z,91.90
2018-05-07T02:29:27.469Z,91.10
2018-05-07T02:31:54.327Z,93.50
2018-05-07T02:34:20.467Z,93.50
2018-05-07T02:36:52.489Z,91.10
2018-05-07T02:39:21.280Z,92.00
2018-05-07T02:41:51.604Z,93.00
2018-05-07T02:44:19.471Z,93.90
2018-05-07T02:46:46.305Z,93.30
2018-05-07T02:49:12.541Z,93.30
2018-05-07T02:51:41.365Z,93.10
2018-05-07T02:54:08.502Z,93.30
2018-05-07T02:56:35.341Z,92.40
2018-05-07T02:59:02.122Z,91.60
2018-05-07T03:01:28.201Z,91.60
2018-05-07T03:03:55.114Z,93.60
2018-05-07T03:06:21.272Z,93.50
2018-05-07T03:08:48.092Z,92.50
2018-05-07T03:11:14.233Z,92.60
2018-05-07T03:13:40.379Z,93.30
2018-05-07T03:16:09.655Z,92.30
2018-05-07T03:18:37.552Z,91.20
2018-05-07T03:21:04.854Z,91.50
2018-05-07T03:23:32.013Z,91.40
2018-05-07T03:25:59.159Z,90.50
2018-05-07T03:28:26.245Z,92.20
2018-05-07T03:30:55.203Z,93.20
2018-05-07T03:33:21.228Z,93.10
2018-05-07T03:35:48.311Z,93.50
2018-05-07T03:38:16.180Z,91.00
2018-05-07T03:40:48.799Z,91.00
2018-05-07T03:43:15.655Z,91.90
2018-05-07T03:45:43.553Z,92.40
2018-05-07T03:48:11.436Z,91.50
2018-05-07T03:50:37.582Z,91.40
2018-05-07T03:53:04.739Z,91.40
2018-05-07T03:55:31.857Z,90.80
2018-05-07T03:58:00.871Z,91.90
2018-05-07T04:00:27.937Z,91.80
2018-05-07T04:02:54.187Z,91.80
2018-05-07T04:05:21.401Z,91.60
2018-05-07T04:07:47.462Z,92.10
2018-05-07T04:10:13.602Z,90.90
2018-05-07T04:12:39.777Z,91.50
2018-05-07T04:15:05.825Z,91.10
2018-05-07T04:17:44.258Z,91.30
2018-05-07T04:20:24.272Z,92.00
2018-05-07T04:23:02.585Z,92.40
2018-05-07T04:25:28.839Z,91.70
2018-05-07T04:27:54.946Z,90.70
2018-05-07T04:30:21.069Z,90.50
2018-05-07T04:32:47.259Z,90.10
2018-05-07T04:35:14.087Z,87.40
2018-05-07T04:37:40.267Z,87.20
2018-05-07T04:40:06.551Z,85.90
2018-05-07T04:42:33.625Z,86.40
2018-05-07T04:45:02.534Z,86.90
2018-05-07T04:47:30.744Z,87.00
2018-05-07T04:49:56.788Z,86.60
2018-05-07T04:52:22.931Z,85.80
2018-05-07T04:54:49.798Z,86.00
2018-05-07T04:57:15.875Z,86.00
2018-05-07T04:59:42.215Z,86.50
2018-05-07T05:02:08.400Z,85.50
2018-05-07T05:04:34.505Z,85.50
2018-05-07T05:07:03.015Z,85.10
2018-05-07T05:09:29.843Z,78.30
2018-05-07T05:11:55.976Z,78.30
2018-05-07T05:14:22.057Z,76.10
2018-05-07T05:16:50.988Z,72.50
2018-05-07T05:19:17.127Z,72.50
2018-05-07T05:21:46.583Z,70.60
2018-05-07T05:24:13.430Z,66.60
2018-05-07T05:26:42.374Z,66.60
2018-05-07T05:29:08.623Z,66.70
2018-05-07T05:31:34.698Z,65.10
2018-05-07T05:34:01.870Z,64.80
2018-05-07T05:36:28.079Z,61.80
2018-05-07T05:38:55.135Z,62.30
2018-05-07T05:41:21.227Z,60.60
2018-05-07T05:43:48.329Z,60.10
2018-05-07T05:46:16.158Z,59.50
2018-05-07T05:48:43.011Z,58.10
2018-05-07T05:51:10.160Z,57.90
2018-05-07T05:53:37.227Z,57.80
2018-05-07T05:56:04.011Z,57.60
2018-05-07T05:58:31.971Z,56.40
2018-05-07T06:00:58.057Z,56.40
2018-05-07T06:03:26.128Z,56.40
2018-05-07T06:05:52.236Z,56.90
2018-05-07T06:08:19.568Z,56.00
2018-05-07T06:10:46.416Z,56.20
2018-05-07T06:13:13.268Z,54.20
2018-05-07T06:15:42.320Z,55.10
2018-05-07T06:18:09.672Z,55.10
2018-05-07T06:20:35.732Z,54.60
2018-05-07T06:23:03.525Z,53.50
2018-05-07T06:25:29.631Z,53.50
2018-05-07T06:27:57.427Z,52.60
2018-05-07T06:30:24.715Z,52.60
2018-05-07T06:32:50.755Z,52.40
2018-05-07T06:35:16.875Z,52.70
2018-05-07T06:37:44.008Z,51.50
2018-05-07T06:40:10.109Z,51.90
2018-05-07T06:42:36.944Z,52.20
2018-05-07T06:45:03.436Z,52.10
2018-05-07T06:47:29.504Z,51.00
2018-05-07T06:49:55.581Z,51.40
2018-05-07T06:52:21.916Z,50.30
2018-05-07T06:54:48.824Z,49.50
2018-05-07T06:57:14.926Z,50.80
2018-05-07T06:59:42.405Z,50.30
2018-05-07T07:02:08.615Z,48.00
2018-05-07T07:04:35.603Z,49.00
2018-05-07T07:07:02.916Z,49.10
2018-05-07T07:09:30.130Z,50.20
2018-05-07T07:11:57.950Z,46.40
2018-05-07T07:14:24.068Z,46.40
2018-05-07T07:16:50.263Z,45.80
2018-05-07T07:19:17.183Z,45.80
2018-05-07T07:21:43.373Z,45.70
2018-05-07T07:24:10.234Z,43.40
2018-05-07T07:26:36.316Z,43.30
2018-05-07T07:29:03.195Z,42.50
2018-05-07T07:31:29.355Z,42.40
2018-05-07T07:33:55.527Z,41.70
2018-05-07T07:36:29.514Z,40.60
2018-05-07T07:38:56.962Z,41.70
2018-05-07T07:41:25.849Z,38.60
2018-05-07T07:43:52.116Z,38.60
2018-05-07T07:46:19.222Z,39.10
2018-05-07T07:48:45.591Z,40.10
2018-05-07T07:51:12.756Z,37.60
2018-05-07T07:53:39.031Z,39.60
2018-05-07T07:56:05.721Z,37.10
2018-05-07T07:58:32.582Z,36.50
2018-05-07T08:01:00.736Z,36.20
2018-05-07T08:03:27.818Z,35.60
2018-05-07T08:05:53.937Z,33.70
2018-05-07T08:08:20.258Z,34.70
2018-05-07T08:10:47.339Z,35.30
2018-05-07T08:13:15.396Z,34.60
2018-05-07T08:15:41.709Z,33.60
2018-05-07T08:18:11.541Z,35.40
2018-05-07T08:20:42.511Z,33.90
2018-05-07T08:23:08.601Z,34.10
2018-05-07T08:25:34.757Z,33.80
2018-05-07T08:28:00.945Z,32.40
2018-05-07T08:30:28.848Z,33.20
2018-05-07T08:32:55.081Z,33.00
2018-05-07T08:35:21.298Z,32.20
2018-05-07T08:37:48.194Z,34.00
2018-05-07T08:40:15.178Z,32.20
2018-05-07T08:42:42.301Z,31.90
2018-05-07T08:45:11.704Z,33.60
2018-05-07T08:47:37.816Z,30.90
2018-05-07T08:50:06.079Z,31.00
2018-05-07T08:52:32.994Z,30.40
2018-05-07T08:54:59.129Z,30.50
2018-05-07T08:57:25.299Z,28.60
2018-05-07T08:59:52.272Z,30.00
2018-05-07T09:02:19.316Z,30.00
2018-05-07T09:04:45.476Z,29.40
2018-05-07T09:07:14.675Z,30.20
2018-05-07T09:09:41.531Z,29.90
2018-05-07T09:12:07.696Z,29.80
2018-05-07T09:14:35.956Z,30.50
2018-05-07T09:17:02.204Z,31.90
2018-05-07T09:19:34.216Z,30.20
2018-05-07T09:22:00.388Z,29.30
2018-05-07T09:24:26.524Z,29.50
2018-05-07T09:26:53.000Z,29.00
2018-05-07T09:29:19.093Z,29.80
2018-05-07T09:31:45.268Z,27.90
2018-05-07T09:34:11.387Z,27.80
2018-05-07T09:36:38.315Z,27.50
2018-05-07T09:39:05.631Z,27.30
2018-05-07T09:41:32.818Z,27.50
2018-05-07T09:43:58.948Z,27.00
2018-05-07T09:46:25.154Z,28.30
2018-05-07T09:48:53.386Z,29.00
2018-05-07T09:51:19.463Z,28.80
2018-05-07T09:53:50.959Z,29.30
2018-05-07T09:56:17.165Z,28.20
2018-05-07T09:58:56.438Z,28.00
2018-05-07T10:01:22.584Z,27.90
2018-05-07T10:03:48.633Z,28.60
2018-05-07T10:06:15.766Z,30.00
2018-05-07T10:08:41.877Z,28.10
2018-05-07T10:11:09.033Z,27.80
2018-05-07T10:13:36.212Z,27.30
2018-05-07T10:16:02.522Z,27.20
2018-05-07T10:18:28.820Z,28.20
2018-05-07T10:20:56.094Z,26.80
2018-05-07T10:23:22.227Z,25.90
2018-05-07T10:25:48.524Z,27.50
2018-05-07T10:28:15.590Z,26.90
2018-05-07T10:30:41.752Z,26.90
2018-05-07T10:33:08.974Z,26.60
2018-05-07T10:35:35.147Z,27.10
2018-05-07T10:38:01.413Z,27.50
2018-05-07T10:40:28.544Z,26.80
2018-05-07T10:42:55.537Z,26.20
2018-05-07T10:45:25.283Z,26.30
2018-05-07T10:47:52.139Z,27.60
2018-05-07T10:50:18.333Z,27.50
2018-05-07T10:52:44.508Z,28.00
2018-05-07T10:55:12.577Z,26.10
2018-05-07T10:57:40.548Z,27.00
2018-05-07T11:00:06.671Z,26.90
2018-05-07T11:02:32.796Z,27.20
2018-05-07T11:04:59.643Z,26.90
2018-05-07T11:07:28.519Z,26.70
2018-05-07T11:10:03.624Z,26.70
2018-05-07T11:12:30.368Z,28.50
2018-05-07T11:14:56.466Z,28.30
2018-05-07T11:17:23.534Z,27.70
2018-05-07T11:19:50.049Z,27.10
2018-05-07T11:22:16.158Z,27.60
2018-05-07T11:24:42.395Z,28.40
2018-05-07T11:27:10.656Z,26.30
2018-05-07T11:29:37.591Z,28.00
2018-05-07T11:32:04.938Z,27.90
2018-05-07T11:34:31.221Z,27.40
2018-05-07T11:37:01.907Z,27.80
2018-05-07T11:39:30.876Z,27.60
2018-05-07T11:41:57.908Z,27.90
2018-05-07T11:44:24.035Z,27.80
2018-05-07T11:46:50.273Z,26.70
2018-05-07T11:49:16.438Z,26.60
2018-05-07T11:51:43.695Z,29.90
2018-05-07T11:54:10.673Z,28.40
2018-05-07T11:56:36.726Z,28.40
2018-05-07T11:59:02.956Z,26.90
2018-05-07T12:01:29.109Z,26.50
2018-05-07T12:03:56.309Z,27.70
2018-05-07T12:06:28.531Z,26.80
2018-05-07T12:08:56.491Z,26.20
2018-05-07T12:11:24.512Z,26.20
2018-05-07T12:13:50.601Z,27.10
2018-05-07T12:16:16.749Z,26.80
2018-05-07T12:18:43.910Z,26.90
2018-05-07T12:21:11.131Z,26.20
2018-05-07T12:23:37.945Z,26.80
2018-05-07T12:26:05.186Z,26.80
2018-05-07T12:28:31.403Z,27.30
2018-05-07T12:31:01.163Z,27.50
2018-05-07T12:33:28.351Z,28.10
2018-05-07T12:35:57.961Z,29.10
2018-05-07T12:38:24.918Z,28.90
2018-05-07T12:40:51.202Z,27.10
2018-05-07T12:43:18.185Z,28.70
2018-05-07T12:45:44.267Z,28.60
2018-05-07T12:48:10.404Z,27.60
2018-05-07T12:50:37.285Z,27.30
2018-05-07T12:53:07.921Z,27.20
2018-05-07T12:55:35.387Z,28.50
2018-05-07T12:58:04.255Z,28.10
2018-05-07T13:00:31.031Z,28.40
2018-05-07T13:02:58.140Z,28.40
2018-05-07T13:05:25.932Z,28.80
2018-05-07T13:07:51.983Z,28.90
2018-05-07T13:10:18.112Z,29.30
2018-05-07T13:12:44.183Z,28.50
2018-05-07T13:15:10.287Z,29.40
2018-05-07T13:17:36.560Z,28.50
2018-05-07T13:20:02.896Z,28.70
2018-05-07T13:22:31.044Z,28.70
2018-05-07T13:24:58.018Z,30.40
2018-05-07T13:27:25.074Z,30.30
2018-05-07T13:29:52.144Z,30.20
2018-05-07T13:32:18.225Z,33.70
2018-05-07T13:34:47.823Z,33.00
2018-05-07T13:37:14.612Z,31.50
2018-05-07T13:39:40.692Z,31.40
2018-05-07T13:42:07.476Z,29.70
2018-05-07T13:44:34.627Z,29.60
2018-05-07T13:47:00.971Z,30.50
2018-05-07T13:49:28.527Z,31.70
2018-05-07T13:51:56.666Z,30.60
2018-05-07T13:54:22.718Z,30.50
2018-05-07T13:56:50.084Z,30.30
2018-05-07T13:59:16.100Z,30.30
2018-05-07T14:01:42.157Z,30.50
2018-05-07T14:04:08.392Z,32.10
2018-05-07T14:06:35.239Z,31.50
2018-05-07T14:09:02.162Z,31.90
2018-05-07T14:11:28.232Z,31.80
2018-05-07T14:13:54.341Z,32.50
2018-05-07T14:16:20.423Z,32.70
2018-05-07T14:18:46.612Z,32.80
2018-05-07T14:21:13.803Z,33.00
2018-05-07T14:23:40.972Z,32.40
2018-05-07T14:26:07.308Z,33.80
2018-05-07T14:28:34.392Z,32.00
2018-05-07T14:31:01.625Z,32.30
2018-05-07T14:33:30.815Z,32.90
2018-05-07T14:35:56.944Z,32.80
2018-05-07T14:38:24.010Z,33.30
2018-05-07T14:40:51.831Z,33.60
2018-05-07T14:43:18.892Z,33.50
2018-05-07T14:45:48.275Z,33.80
2018-05-07T14:48:16.344Z,34.00
2018-05-07T14:50:42.403Z,33.80
2018-05-07T14:53:09.226Z,33.20
2018-05-07T14:55:35.427Z,33.20
2018-05-07T14:58:01.541Z,34.00
2018-05-07T15:00:27.590Z,34.70
2018-05-07T15:02:54.602Z,35.10
2018-05-07T15:05:20.735Z,34.70
2018-05-07T15:07:47.923Z,33.80
2018-05-07T15:10:14.094Z,35.40
2018-05-07T15:12:44.724Z,32.80
2018-05-07T15:15:11.893Z,32.80
2018-05-07T15:17:38.032Z,33.90
2018-05-07T15:20:06.210Z,33.10
2018-05-07T15:22:32.257Z,33.40
2018-05-07T15:24:58.309Z,34.00
2018-05-07T15:27:24.372Z,33.40
2018-05-07T15:29:50.556Z,32.80
2018-05-07T15:32:16.642Z,33.80
2018-05-07T15:34:42.753Z,34.30
2018-05-07T15:37:12.163Z,33.80
2018-05-07T15:39:38.468Z,33.90
2018-05-07T15:42:05.599Z,35.40
2018-05-07T15:44:32.409Z,35.00
2018-05-07T15:47:00.424Z,34.50
2018-05-07T15:49:27.364Z,34.40
2018-05-07T15:51:54.355Z,34.30
2018-05-07T15:54:20.472Z,35.00
2018-05-07T15:56:46.577Z,35.20
2018-05-07T15:59:16.255Z,34.60
2018-05-07T16:01:42.404Z,36.70
2018-05-07T16:04:09.200Z,41.40
2018-05-07T16:06:36.324Z,41.30
2018-05-07T16:09:02.493Z,42.40
2018-05-07T16:11:29.653Z,42.90
2018-05-07T16:13:55.753Z,43.90
2018-05-07T16:16:21.860Z,43.70
2018-05-07T16:18:49.030Z,44.20
2018-05-07T16:21:15.179Z,44.60
2018-05-07T16:23:42.247Z,44.40
2018-05-07T16:26:09.191Z,44.40
2018-05-07T16:28:36.066Z,46.40
2018-05-07T16:31:02.990Z,46.40
2018-05-07T16:33:29.076Z,46.30
2018-05-07T16:35:56.401Z,44.90
2018-05-07T16:38:22.469Z,45.60
2018-05-07T16:40:48.668Z,45.40
2018-05-07T16:43:16.912Z,45.40
2018-05-07T16:45:43.055Z,44.80
2018-05-07T16:48:09.313Z,45.50
2018-05-07T16:50:36.412Z,44.80
2018-05-07T16:53:02.706Z,45.30
2018-05-07T16:55:30.782Z,46.50
2018-05-07T16:57:57.612Z,46.30
2018-05-07T17:00:23.788Z,46.30
2018-05-07T17:02:51.046Z,47.20
2018-05-07T17:05:18.170Z,47.60
2018-05-07T17:07:46.124Z,48.10
2018-05-07T17:10:13.187Z,47.40
2018-05-07T17:12:39.988Z,46.90
2018-05-07T17:15:06.994Z,46.80
2018-05-07T17:17:33.820Z,46.30
2018-05-07T17:20:00.836Z,46.50
2018-05-07T17:22:26.985Z,46.30
2018-05-07T17:24:54.093Z,46.60
2018-05-07T17:27:20.161Z,46.30
2018-05-07T17:29:50.060Z,46.70
2018-05-07T17:32:16.112Z,47.50
2018-05-07T17:34:44.096Z,48.20
2018-05-07T17:37:14.620Z,48.20
2018-05-07T17:39:45.049Z,48.80
2018-05-07T17:42:16.576Z,49.10
2018-05-07T17:44:55.096Z,49.10
2018-05-07T17:47:34.516Z,49.10
2018-05-07T17:50:00.663Z,49.00
2018-05-07T17:52:26.764Z,49.50
2018-05-07T17:54:53.985Z,49.80
2018-05-07T17:57:20.003Z,50.00
2018-05-07T17:59:46.138Z,50.10
2018-05-07T18:02:12.949Z,51.10
2018-05-07T18:04:39.729Z,50.60
2018-05-07T18:07:08.807Z,50.50
2018-05-07T18:09:34.835Z,50.90
2018-05-07T18:12:03.392Z,50.80
2018-05-07T18:14:29.632Z,51.20
2018-05-07T18:16:55.789Z,51.80
2018-05-07T18:19:23.930Z,52.10
2018-05-07T18:21:53.025Z,53.10
2018-05-07T18:24:19.916Z,53.20
2018-05-07T18:26:46.082Z,53.20
2018-05-07T18:29:14.133Z,53.00
2018-05-07T18:31:40.164Z,53.40
2018-05-07T18:34:06.465Z,53.70
2018-05-07T18:36:37.117Z,54.00
2018-05-07T18:39:03.209Z,54.10
2018-05-07T18:41:33.994Z,54.50
2018-05-07T18:44:00.345Z,55.10
2018-05-07T18:46:31.882Z,55.60
2018-05-07T18:48:57.929Z,55.60
2018-05-07T18:51:26.928Z,56.40
2018-05-07T18:53:53.236Z,56.40
2018-05-07T18:56:20.021Z,57.30
2018-05-07T18:58:46.356Z,57.30
2018-05-07T19:01:12.600Z,57.60
2018-05-07T19:03:38.675Z,58.10
2018-05-07T19:06:05.714Z,58.70
2018-05-07T19:08:32.912Z,58.00
2018-05-07T19:10:58.971Z,59.10
2018-05-07T19:13:26.090Z,58.90
2018-05-07T19:15:52.122Z,59.20
2018-05-07T19:18:20.239Z,58.90
2018-05-07T19:20:48.085Z,59.40
2018-05-07T19:23:22.223Z,59.40
2018-05-07T19:25:49.046Z,60.00
2018-05-07T19:28:15.339Z,59.90
2018-05-07T19:30:42.678Z,60.60
2018-05-07T19:33:08.806Z,60.70
2018-05-07T19:35:34.841Z,60.60
2018-05-07T19:38:01.898Z,60.50
2018-05-07T19:40:28.976Z,61.00
2018-05-07T19:42:56.162Z,60.90
2018-05-07T19:45:22.201Z,61.70
2018-05-07T19:47:48.329Z,61.60
2018-05-07T19:50:14.425Z,62.00
2018-05-07T19:52:41.414Z,63.20
2018-05-07T19:55:07.490Z,63.10
2018-05-07T19:57:34.466Z,64.50
2018-05-07T20:00:00.679Z,63.50
2018-05-07T20:02:27.830Z,64.10
2018-05-07T20:04:57.804Z,64.70
2018-05-07T20:07:23.877Z,64.80
2018-05-07T20:09:53.786Z,65.20
2018-05-07T20:12:20.664Z,65.30
2018-05-07T20:14:46.740Z,65.20
2018-05-07T20:17:13.126Z,66.30
2018-05-07T20:19:40.235Z,66.40
2018-05-07T20:22:07.087Z,67.50
2018-05-07T20:24:34.050Z,68.40
2018-05-07T20:27:00.138Z,68.40
2018-05-07T20:29:29.025Z,67.20
2018-05-07T20:31:55.119Z,67.00
2018-05-07T20:34:22.163Z,67.00
2018-05-07T20:36:49.277Z,66.60
2018-05-07T20:39:18.142Z,68.70
2018-05-07T20:41:44.223Z,68.60
2018-05-07T20:44:11.609Z,67.90
2018-05-07T20:46:37.787Z,68.40
2018-05-07T20:49:04.084Z,68.90
2018-05-07T20:51:30.927Z,69.70
2018-05-07T20:53:57.945Z,69.60
2018-05-07T20:56:25.773Z,69.10
2018-05-07T20:58:51.883Z,69.10
2018-05-07T21:01:20.163Z,69.90
2018-05-07T21:03:47.166Z,70.10
2018-05-07T21:06:16.971Z,68.80
2018-05-07T21:08:43.084Z,69.10
2018-05-07T21:11:11.131Z,70.70
2018-05-07T21:13:38.213Z,70.60
2018-05-07T21:16:05.510Z,72.40
2018-05-07T21:18:33.372Z,71.00
2018-05-07T21:21:02.556Z,71.00
2018-05-07T21:23:28.644Z,74.10
2018-05-07T21:25:54.737Z,72.90
2018-05-07T21:28:23.627Z,72.90
2018-05-07T21:30:50.497Z,73.30
2018-05-07T21:33:16.537Z,73.20
2018-05-07T21:35:42.753Z,74.20
2018-05-07T21:38:08.772Z,73.10
2018-05-07T21:40:34.855Z,75.60
2018-05-07T21:43:01.716Z,75.70
2018-05-07T21:45:28.562Z,74.50
2018-05-07T21:47:58.621Z,76.30
2018-05-07T21:50:25.668Z,76.10
2018-05-07T21:52:51.737Z,77.60
2018-05-07T21:55:18.598Z,77.80
2018-05-07T21:57:44.660Z,77.70
2018-05-07T22:00:10.710Z,76.90
2018-05-07T22:02:36.890Z,76.90
2018-05-07T22:05:06.692Z,75.80
2018-05-07T22:07:37.334Z,78.50
2018-05-07T22:10:04.650Z,78.40
2018-05-07T22:12:30.719Z,77.30
2018-05-07T22:14:57.548Z,77.80
2018-05-07T22:17:24.716Z,77.50
2018-05-07T22:19:51.844Z,78.00
2018-05-07T22:22:19.663Z,77.00
2018-05-07T22:24:46.050Z,76.90
2018-05-07T22:27:12.525Z,77.60
2018-05-07T22:29:38.579Z,78.20
2018-05-07T22:32:04.773Z,77.50
2018-05-07T22:34:30.885Z,76.30
2018-05-07T22:36:56.984Z,77.40
2018-05-07T22:39:23.067Z,78.10
2018-05-07T22:41:50.127Z,77.30
2018-05-07T22:44:16.163Z,76.40
2018-05-07T22:46:42.957Z,77.50
2018-05-07T22:49:09.981Z,77.00
2018-05-07T22:51:37.128Z,78.00
2018-05-07T22:54:04.214Z,78.00
2018-05-07T22:56:30.337Z,78.40
2018-05-07T22:58:59.541Z,78.50
2018-05-07T23:01:26.640Z,78.80
2018-05-07T23:03:53.421Z,78.80
2018-05-07T23:06:19.534Z,78.70
2018-05-07T23:08:45.605Z,79.70
2018-05-07T23:11:12.650Z,78.80
2018-05-07T23:13:39.732Z,79.50
2018-05-07T23:16:06.565Z,80.40
2018-05-07T23:18:41.165Z,79.60
2018-05-07T23:21:07.324Z,79.60
2018-05-07T23:23:34.121Z,80.00
2018-05-07T23:26:00.201Z,80.00
2018-05-07T23:28:27.509Z,80.60
2018-05-07T23:30:53.612Z,81.60
2018-05-07T23:33:19.856Z,80.00
2018-05-07T23:35:46.956Z,81.80
2018-05-07T23:38:16.368Z,82.00
2018-05-07T23:40:42.671Z,82.30
2018-05-07T23:43:09.843Z,83.30
2018-05-07T23:45:35.883Z,83.20
2018-05-07T23:48:02.686Z,83.70
2018-05-07T23:50:29.495Z,85.10
2018-05-07T23:52:56.716Z,84.20
2018-05-07T23:55:22.789Z,85.00
2018-05-07T23:57:48.833Z,82.70
